Thursday, October 19, 2017, 6:59 AM EDT
Back to Local

KUUU, Newport State Airport

Location: Middletown, RI, United States Lat: 41.533
Local Time: 6:59 AM EDT (10:59 GMT) Lon: -71.283
Time Zone: US/Eastern Elev: 170 ft

Show me the last for .
Show Decoded

2017-10-19 06:35 METAR KUUU 191035Z AUTO 17003KT 2SM BR CLR 13/13 A3024 RMK AO2 VIS 1V4 T01280128
                 =
2017-10-19 06:28 METAR KUUU 191028Z AUTO 16003KT 3SM BR CLR 12/12 A3024 RMK AO2 T01220122 =
2017-10-19 05:53 METAR KUUU 190953Z AUTO 16004KT 1 1/4SM BR CLR 12/12 A3025 RMK AO2 SLP240
                 T01220122 =
2017-10-19 05:38 METAR KUUU 190938Z AUTO 16003KT 1/2SM FG CLR 13/13 A3025 RMK AO2 T01280128 =
2017-10-19 05:22 METAR KUUU 190922Z AUTO 00000KT 1 1/2SM BR CLR 13/13 A3025 RMK AO2 VIS 3/4V2 1/2
                 T01330133 =
2017-10-19 05:05 METAR KUUU 190905Z AUTO 00000KT 3/4SM BR CLR 13/13 A3025 RMK AO2 T01330133 =
2017-10-19 04:53 METAR KUUU 190853Z AUTO 18003KT 1 1/4SM BR CLR 13/13 A3025 RMK AO2 VIS 1/2V3
                 SLP242 T01330133 56003 =
2017-10-19 04:48 METAR KUUU 190848Z AUTO 00000KT 1 3/4SM BR CLR 13/13 A3025 RMK AO2 VIS 1V3 =
2017-10-19 04:40 METAR KUUU 190840Z AUTO 18003KT 2SM BR CLR 13/13 A3025 RMK AO2 T01280128 =
2017-10-19 04:22 METAR KUUU 190822Z AUTO 19003KT 1 1/4SM BR CLR 13/13 A3025 RMK AO2 T01280128 =
2017-10-19 04:06 METAR KUUU 190806Z AUTO 19003KT 2SM BR CLR 12/12 A3025 RMK AO2 T01220122 =
2017-10-19 03:53 METAR KUUU 190753Z AUTO 19003KT 1/2SM FG CLR 11/11 A3025 RMK AO2 SLP241
                 T01110106 =
2017-10-19 03:31 METAR KUUU 190731Z AUTO 00000KT 3/4SM BR CLR 11/11 A3025 RMK AO2 T01110111 =
2017-10-19 03:20 METAR KUUU 190720Z AUTO 00000KT 1 3/4SM BR CLR 12/12 A3025 RMK AO2 T01170117 =
2017-10-19 03:04 METAR KUUU 190704Z AUTO 00000KT 5SM BR CLR 12/12 A3026 RMK AO2 T01170117 =
2017-10-19 02:53 METAR KUUU 190653Z AUTO 00000KT 2SM BR CLR 11/11 A3026 RMK AO2 SLP245 T01110111
                 =
2017-10-19 02:08 METAR KUUU 190608Z AUTO 00000KT 3SM BR CLR 11/11 A3026 RMK AO2 T01060106 =
2017-10-19 01:53 METAR KUUU 190553Z AUTO 00000KT 1 1/4SM BR CLR 11/11 A3027 RMK AO2 SLP248
                 T01060106 10150 20100 56007 =
2017-10-19 01:45 METAR KUUU 190545Z AUTO 00000KT 1 3/4SM BR CLR 11/11 A3027 RMK AO2 T01060106 =
2017-10-19 01:38 METAR KUUU 190538Z AUTO 00000KT 3SM BR CLR 11/11 A3027 RMK AO2 T01110111 =
2017-10-19 01:22 METAR KUUU 190522Z AUTO 00000KT 1 3/4SM BR CLR 11/11 A3027 RMK AO2 T01060106 =
2017-10-19 00:53 METAR KUUU 190453Z AUTO 00000KT 10SM CLR 12/12 A3027 RMK AO2 SLP248 T01170117
                 402170100 =
2017-10-18 23:53 METAR KUUU 190353Z AUTO 00000KT 10SM CLR 11/11 A3027 RMK AO2 SLP250 T01110111 =
2017-10-18 22:53 METAR KUUU 190253Z AUTO 00000KT 10SM CLR 13/12 A3029 RMK AO2 SLP256 T01280117
                 50006 =
2017-10-18 21:53 METAR KUUU 190153Z AUTO 00000KT 10SM CLR 15/13 A3029 RMK AO2 SLP255 T01500128 =
2017-10-18 20:53 METAR KUUU 190053Z AUTO VRB03KT 10SM CLR 15/13 A3028 RMK AO2 SLP254 T01500133 =
2017-10-18 19:53 METAR KUUU 182353Z AUTO 00000KT 10SM CLR 15/12 A3027 RMK AO2 SLP250 T01500117
                 10217 20150 51015 =
2017-10-18 18:53 METAR KUUU 182253Z AUTO VRB03KT 10SM CLR 17/11 A3026 RMK AO2 SLP248 T01670111 =
2017-10-18 17:53 METAR KUUU 182153Z AUTO 22004KT 10SM CLR 17/12 A3024 RMK AO2 SLP239 T01720122 =
2017-10-18 16:53 METAR KUUU 182053Z AUTO VRB06KT 10SM CLR 18/12 A3023 RMK AO2 SLP234 T01830117
                 58001 =
2017-10-18 15:53 METAR KUUU 181953Z AUTO 20006KT 10SM CLR 20/11 A3023 RMK AO2 SLP236 T02000111 =
2017-10-18 14:53 METAR KUUU 181853Z AUTO 30004KT 10SM CLR 22/08 A3023 RMK AO2 SLP235 T02170083 =
2017-10-18 13:53 METAR KUUU 181753Z AUTO VRB04KT 10SM CLR 21/09 A3023 RMK AO2 SLP236 T02060094
                 10206 20111 58016 =
2017-10-18 12:53 METAR KUUU 181653Z AUTO VRB04KT 10SM CLR 19/08 A3026 RMK AO2 SLP244 T01940083 =
2017-10-18 11:53 METAR KUUU 181553Z AUTO 30005KT 10SM CLR 18/09 A3028 RMK AO2 SLP254 T01830089 =
2017-10-18 10:53 METAR KUUU 181453Z AUTO VRB05KT 10SM CLR 16/07 A3028 RMK AO2 SLP253 T01610072
                 50004 =
2017-10-18 09:53 METAR KUUU 181353Z AUTO VRB03KT 10SM CLR 14/06 A3029 RMK AO2 SLP256 T01440061 =
2017-10-18 08:53 METAR KUUU 181253Z AUTO VRB04KT 10SM CLR 13/04 A3028 RMK AO2 SLP254 T01280044 =
2017-10-18 07:53 METAR KUUU 181153Z AUTO VRB03KT 10SM CLR 11/04 A3027 RMK AO2 SLP249 T01110039
                 10122 20100 53010 =

Support USWX by starting your Amazon purchase here.